createdAt,value
2023-04-18T00:01:23.887Z,5.49
2023-04-18T00:03:51.272Z,5.53
2023-04-18T00:06:18.116Z,5.64
2023-04-18T00:08:44.659Z,5.65
2023-04-18T00:11:11.143Z,5.42
2023-04-18T00:13:39.329Z,5.51
2023-04-18T00:16:07.957Z,5.60
2023-04-18T00:18:36.777Z,5.40
2023-04-18T00:21:11.584Z,5.44
2023-04-18T00:23:38.540Z,5.52
2023-04-18T00:26:11.662Z,5.51
2023-04-18T00:28:38.146Z,5.47
2023-04-18T00:31:12.876Z,5.50
2023-04-18T00:33:39.393Z,5.55
2023-04-18T00:36:06.204Z,5.45
2023-04-18T00:38:35.354Z,5.41
2023-04-18T00:41:02.153Z,5.45
2023-04-18T00:43:28.607Z,5.33
2023-04-18T00:45:57.026Z,5.21
2023-04-18T00:48:28.171Z,5.06
2023-04-18T00:50:55.751Z,4.98
2023-04-18T00:53:22.804Z,5.02
2023-04-18T00:55:49.832Z,4.97
2023-04-18T00:58:16.860Z,4.95
2023-04-18T01:00:43.927Z,4.97
2023-04-18T01:03:10.713Z,4.94
2023-04-18T01:05:38.175Z,4.92
2023-04-18T01:08:20.147Z,4.96
2023-04-18T01:10:46.792Z,4.86
2023-04-18T01:13:30.003Z,4.62
2023-04-18T01:15:56.511Z,4.59
2023-04-18T01:18:27.210Z,4.67
2023-04-18T01:21:03.354Z,4.66
2023-04-18T01:23:30.629Z,4.64
2023-04-18T01:26:09.154Z,4.60
2023-04-18T01:28:39.350Z,4.27
2023-04-18T01:31:05.960Z,4.34
2023-04-18T01:33:32.436Z,4.32
2023-04-18T01:35:58.905Z,4.26
2023-04-18T01:38:25.395Z,4.21
2023-04-18T01:40:51.905Z,4.12
2023-04-18T01:43:41.830Z,4.03
2023-04-18T01:46:08.318Z,4.22
2023-04-18T01:48:53.130Z,4.11
2023-04-18T01:51:19.707Z,4.30
2023-04-18T01:53:46.180Z,4.48
2023-04-18T01:56:12.742Z,4.58
2023-04-18T01:58:39.358Z,4.50
2023-04-18T02:01:05.824Z,4.39
2023-04-18T02:03:32.507Z,4.39
2023-04-18T02:06:01.415Z,4.38
2023-04-18T02:08:32.874Z,4.37
2023-04-18T02:11:00.947Z,4.26
2023-04-18T02:13:27.994Z,4.31
2023-04-18T02:15:54.485Z,4.23
2023-04-18T02:18:22.009Z,4.02
2023-04-18T02:20:49.588Z,3.91
2023-04-18T02:23:16.067Z,3.73
2023-04-18T02:25:42.638Z,3.63
2023-04-18T02:28:09.203Z,3.71
2023-04-18T02:30:41.728Z,3.69
2023-04-18T02:33:14.973Z,3.76
2023-04-18T02:35:41.494Z,3.65
2023-04-18T02:38:07.988Z,3.68
2023-04-18T02:40:37.284Z,3.69
2023-04-18T02:43:03.861Z,3.67
2023-04-18T02:45:30.350Z,3.76
2023-04-18T02:47:57.019Z,3.86
2023-04-18T02:50:24.915Z,3.78
2023-04-18T02:52:51.684Z,3.77
2023-04-18T02:55:18.414Z,3.67
2023-04-18T02:57:44.964Z,3.65
2023-04-18T03:00:13.488Z,3.73
2023-04-18T03:02:40.074Z,3.81
2023-04-18T03:05:07.329Z,3.81
2023-04-18T03:07:33.955Z,3.79
2023-04-18T03:10:07.000Z,3.55
2023-04-18T03:12:33.612Z,3.47
2023-04-18T03:15:00.136Z,3.34
2023-04-18T03:17:26.655Z,3.30
2023-04-18T03:19:53.119Z,3.25
2023-04-18T03:22:19.893Z,3.16
2023-04-18T03:24:46.436Z,3.04
2023-04-18T03:27:19.047Z,3.13
2023-04-18T03:29:45.564Z,3.24
2023-04-18T03:32:12.561Z,3.31
2023-04-18T03:34:39.005Z,3.29
2023-04-18T03:37:05.536Z,3.20
2023-04-18T03:39:32.294Z,3.08
2023-04-18T03:42:01.962Z,3.02
2023-04-18T03:44:28.513Z,3.08
2023-04-18T03:46:55.879Z,3.16
2023-04-18T03:49:22.364Z,3.28
2023-04-18T03:51:57.973Z,3.16
2023-04-18T03:54:24.448Z,3.37
2023-04-18T03:56:51.015Z,3.39
2023-04-18T03:59:17.447Z,3.40
2023-04-18T04:01:43.948Z,3.41
2023-04-18T04:04:11.930Z,3.50
2023-04-18T04:06:53.082Z,3.51
2023-04-18T04:09:19.629Z,3.60
2023-04-18T04:11:46.116Z,3.52
2023-04-18T04:14:26.707Z,3.70
2023-04-18T04:16:53.292Z,3.83
2023-04-18T04:19:19.761Z,3.78
2023-04-18T04:21:46.236Z,3.92
2023-04-18T04:24:13.684Z,4.03
2023-04-18T04:26:42.601Z,4.06
2023-04-18T04:29:10.651Z,4.06
2023-04-18T04:31:37.192Z,4.16
2023-04-18T04:34:04.855Z,4.17
2023-04-18T04:36:42.096Z,4.14
2023-04-18T04:39:09.914Z,4.16
2023-04-18T04:41:37.575Z,4.29
2023-04-18T04:44:04.679Z,4.31
2023-04-18T04:46:31.773Z,4.23
2023-04-18T04:48:58.295Z,4.02
2023-04-18T04:51:24.926Z,4.06
2023-04-18T04:53:51.701Z,4.21
2023-04-18T04:56:18.566Z,4.25
2023-04-18T04:58:45.227Z,4.31
2023-04-18T05:01:12.919Z,4.40
2023-04-18T05:03:39.690Z,4.46
2023-04-18T05:06:06.509Z,4.51
2023-04-18T05:08:32.995Z,4.61
2023-04-18T05:10:59.538Z,4.71
2023-04-18T05:13:26.096Z,4.76
2023-04-18T05:15:52.569Z,4.85
2023-04-18T05:18:19.123Z,4.94
2023-04-18T05:20:45.775Z,5.10
2023-04-18T05:23:12.263Z,5.24
2023-04-18T05:25:38.955Z,5.46
2023-04-18T05:28:05.525Z,5.61
2023-04-18T05:30:32.063Z,5.77
2023-04-18T05:32:58.637Z,5.87
2023-04-18T05:35:25.339Z,5.89
2023-04-18T05:37:51.918Z,6.01
2023-04-18T05:40:18.430Z,6.19
2023-04-18T05:42:44.965Z,6.31
2023-04-18T05:45:11.882Z,6.42
2023-04-18T05:47:38.443Z,6.48
2023-04-18T05:50:06.481Z,6.58
2023-04-18T05:52:33.151Z,6.67
2023-04-18T05:54:59.654Z,6.79
2023-04-18T05:57:26.097Z,6.93
2023-04-18T05:59:52.552Z,7.01
2023-04-18T06:02:19.047Z,6.98
2023-04-18T06:04:45.776Z,7.04
2023-04-18T06:07:12.416Z,7.15
2023-04-18T06:09:38.938Z,7.26
2023-04-18T06:12:05.719Z,7.30
2023-04-18T06:14:32.346Z,7.30
2023-04-18T06:16:58.940Z,7.40
2023-04-18T06:19:25.609Z,7.47
2023-04-18T06:21:53.096Z,7.60
2023-04-18T06:24:19.697Z,7.73
2023-04-18T06:26:46.464Z,7.84
2023-04-18T06:29:13.049Z,7.95
2023-04-18T06:31:39.659Z,8.01
2023-04-18T06:34:06.282Z,8.05
2023-04-18T06:36:32.947Z,8.03
2023-04-18T06:38:59.463Z,8.07
2023-04-18T06:41:25.977Z,8.14
2023-04-18T06:46:26.260Z,8.20
2023-04-18T06:48:52.845Z,8.25
2023-04-18T06:51:19.317Z,8.39
2023-04-18T06:53:45.968Z,8.44
2023-04-18T06:56:12.620Z,8.17
2023-04-18T06:58:39.176Z,8.29
2023-04-18T07:01:05.713Z,8.41
2023-04-18T07:03:32.272Z,8.38
2023-04-18T07:05:58.879Z,8.50
2023-04-18T07:08:25.404Z,8.54
2023-04-18T07:10:51.900Z,8.60
2023-04-18T07:13:18.430Z,8.58
2023-04-18T07:15:45.004Z,8.71
2023-04-18T07:18:11.898Z,8.70
2023-04-18T07:20:40.231Z,8.73
2023-04-18T07:23:06.783Z,8.76
2023-04-18T07:25:33.432Z,8.62
2023-04-18T07:27:59.950Z,8.80
2023-04-18T07:30:26.434Z,8.95
2023-04-18T07:32:53.046Z,9.14
2023-04-18T07:35:19.676Z,9.31
2023-04-18T07:37:46.507Z,9.53
2023-04-18T07:40:13.727Z,9.47
2023-04-18T07:42:40.346Z,9.45
2023-04-18T07:45:07.378Z,9.48
2023-04-18T07:47:33.956Z,9.41
2023-04-18T07:50:00.572Z,9.39
2023-04-18T07:52:27.167Z,9.40
2023-04-18T07:54:53.684Z,9.39
2023-04-18T07:57:20.358Z,9.53
2023-04-18T07:59:46.835Z,9.69
2023-04-18T08:02:13.407Z,9.64
2023-04-18T08:04:40.016Z,9.70
2023-04-18T08:07:06.594Z,9.63
2023-04-18T08:09:34.138Z,9.71
2023-04-18T08:12:00.593Z,9.74
2023-04-18T08:14:27.054Z,9.83
2023-04-18T08:16:53.533Z,10.20
2023-04-18T08:19:20.186Z,10.18
2023-04-18T08:21:46.950Z,9.81
2023-04-18T08:24:13.443Z,10.00
2023-04-18T08:26:40.000Z,10.11
2023-04-18T08:29:06.528Z,10.12
2023-04-18T08:31:33.155Z,10.36
2023-04-18T08:33:59.758Z,10.28
2023-04-18T08:36:26.698Z,10.28
2023-04-18T08:38:53.295Z,10.29
2023-04-18T08:41:24.671Z,10.19
2023-04-18T08:43:51.195Z,10.22
2023-04-18T08:46:18.878Z,10.22
2023-04-18T08:48:50.035Z,10.02
2023-04-18T08:51:16.532Z,10.16
2023-04-18T08:53:44.982Z,10.24
2023-04-18T08:56:14.528Z,10.25
2023-04-18T08:58:41.056Z,10.58
2023-04-18T09:01:07.589Z,10.63
2023-04-18T09:03:43.185Z,10.53
2023-04-18T09:06:16.302Z,10.75
2023-04-18T09:08:44.362Z,10.53
2023-04-18T09:11:28.920Z,10.87
2023-04-18T09:13:58.804Z,10.89
2023-04-18T09:16:27.701Z,11.13
2023-04-18T09:19:18.428Z,11.17
2023-04-18T09:21:50.099Z,11.17
2023-04-18T09:24:20.678Z,11.35
2023-04-18T09:26:49.807Z,11.47
2023-04-18T09:29:18.456Z,11.35
2023-04-18T09:32:01.234Z,11.40
2023-04-18T09:34:29.128Z,11.48
2023-04-18T09:37:15.952Z,11.48
2023-04-18T09:39:44.297Z,11.60
2023-04-18T09:42:11.331Z,11.82
2023-04-18T09:44:39.452Z,11.88
2023-04-18T09:47:07.844Z,11.88
2023-04-18T09:49:35.063Z,11.97
2023-04-18T09:52:07.381Z,12.24
2023-04-18T09:54:38.360Z,12.35
2023-04-18T09:57:11.939Z,12.44
2023-04-18T10:00:00.015Z,12.52
2023-04-18T10:02:35.250Z,12.48
2023-04-18T10:05:08.188Z,12.72
2023-04-18T10:07:35.346Z,12.76
2023-04-18T10:10:01.987Z,12.92
2023-04-18T10:12:28.723Z,13.05
2023-04-18T10:14:56.152Z,13.25
2023-04-18T10:17:22.728Z,13.21
2023-04-18T10:20:06.648Z,12.91
2023-04-18T10:22:33.251Z,12.97
2023-04-18T10:24:59.776Z,13.10
2023-04-18T10:27:56.449Z,13.02
2023-04-18T10:30:45.557Z,12.74
2023-04-18T10:33:42.382Z,13.04
2023-04-18T10:36:09.313Z,12.98
2023-04-18T10:38:45.185Z,13.09
2023-04-18T10:41:27.081Z,13.11
2023-04-18T10:44:09.516Z,13.06
2023-04-18T10:46:36.996Z,13.47
2023-04-18T10:49:26.780Z,13.28
2023-04-18T10:51:59.547Z,13.40
2023-04-18T10:54:38.712Z,13.36
2023-04-18T10:57:08.830Z,13.65
2023-04-18T10:59:43.785Z,13.79
2023-04-18T11:02:30.173Z,13.87
2023-04-18T11:05:04.569Z,13.67
2023-04-18T11:07:48.384Z,13.42
2023-04-18T11:10:25.320Z,13.57
2023-04-18T11:12:53.358Z,13.77
2023-04-18T11:15:24.414Z,13.84
2023-04-18T11:18:03.741Z,13.93
2023-04-18T11:20:39.274Z,13.84
2023-04-18T11:23:24.861Z,13.78
2023-04-18T11:25:54.278Z,13.72
2023-04-18T11:28:25.345Z,13.90
2023-04-18T11:30:51.843Z,14.11
2023-04-18T11:33:18.357Z,14.25
2023-04-18T11:35:46.514Z,14.27
2023-04-18T11:38:15.844Z,14.36
2023-04-18T11:40:51.554Z,14.08
2023-04-18T11:43:24.420Z,13.89
2023-04-18T11:46:00.106Z,13.87
2023-04-18T11:48:40.563Z,13.94
2023-04-18T11:51:29.074Z,14.30
2023-04-18T11:53:55.540Z,14.35
2023-04-18T11:56:21.995Z,14.47
2023-04-18T11:58:48.521Z,14.48
2023-04-18T12:01:20.018Z,14.54
2023-04-18T12:04:07.892Z,14.56
2023-04-18T12:06:53.321Z,14.42
2023-04-18T12:09:26.667Z,14.47
2023-04-18T12:12:03.965Z,14.47
2023-04-18T12:14:30.732Z,14.66
2023-04-18T12:16:57.301Z,14.52
2023-04-18T12:19:29.251Z,14.50
2023-04-18T12:22:01.962Z,14.50
2023-04-18T12:24:29.166Z,14.35
2023-04-18T12:26:57.718Z,14.44
2023-04-18T12:29:25.609Z,14.50
2023-04-18T12:31:52.220Z,14.60
2023-04-18T12:34:18.825Z,14.53
2023-04-18T12:36:45.975Z,14.64
2023-04-18T12:39:12.794Z,14.78
2023-04-18T12:41:44.880Z,14.55
2023-04-18T12:44:11.609Z,14.77
2023-04-18T12:46:38.301Z,14.90
2023-04-18T12:49:04.855Z,14.86
2023-04-18T12:51:31.419Z,14.71
2023-04-18T12:53:57.900Z,14.72
2023-04-18T12:56:24.418Z,14.82
2023-04-18T12:58:51.007Z,14.53
2023-04-18T13:01:18.021Z,14.53
2023-04-18T13:03:48.574Z,14.44
2023-04-18T13:06:20.263Z,14.47
2023-04-18T13:08:47.390Z,14.52
2023-04-18T13:11:13.916Z,14.95
2023-04-18T13:13:40.397Z,14.86
2023-04-18T13:16:07.111Z,14.98
2023-04-18T13:18:33.860Z,14.87
2023-04-18T13:21:00.443Z,14.79
2023-04-18T13:23:26.955Z,14.88
2023-04-18T13:25:54.660Z,14.77
2023-04-18T13:28:21.250Z,14.83
2023-04-18T13:30:47.778Z,15.05
2023-04-18T13:33:15.364Z,14.93
2023-04-18T13:35:41.868Z,14.96
2023-04-18T13:38:08.377Z,15.24
2023-04-18T13:40:34.896Z,15.23
2023-04-18T13:43:01.433Z,15.38
2023-04-18T13:45:28.008Z,15.30
2023-04-18T13:47:54.825Z,15.50
2023-04-18T13:50:22.954Z,15.70
2023-04-18T13:52:53.513Z,15.66
2023-04-18T13:55:22.732Z,15.86
2023-04-18T13:57:49.187Z,15.70
2023-04-18T14:00:16.866Z,15.63
2023-04-18T14:02:43.631Z,15.39
2023-04-18T14:05:10.649Z,15.39
2023-04-18T14:07:38.374Z,15.53
2023-04-18T14:10:05.721Z,15.48
2023-04-18T14:12:32.260Z,15.45
2023-04-18T14:14:58.777Z,15.20
2023-04-18T14:17:25.319Z,15.19
2023-04-18T14:19:52.044Z,15.26
2023-04-18T14:22:18.632Z,15.24
2023-04-18T14:24:45.359Z,15.29
2023-04-18T14:27:11.897Z,15.16
2023-04-18T14:29:38.434Z,14.99
2023-04-18T14:32:05.773Z,15.24
2023-04-18T14:34:33.973Z,15.32
2023-04-18T14:37:01.486Z,15.37
2023-04-18T14:39:28.056Z,15.77
2023-04-18T14:41:54.800Z,15.48
2023-04-18T14:44:21.656Z,15.29
2023-04-18T14:46:48.229Z,15.08
2023-04-18T14:49:15.016Z,14.86
2023-04-18T14:51:41.672Z,14.98
2023-04-18T14:54:08.312Z,15.45
2023-04-18T14:56:34.759Z,15.92
2023-04-18T14:59:02.429Z,15.56
2023-04-18T15:01:29.267Z,15.34
2023-04-18T15:03:55.983Z,15.25
2023-04-18T15:06:23.212Z,15.35
2023-04-18T15:08:49.725Z,15.61
2023-04-18T15:11:16.162Z,16.05
2023-04-18T15:13:42.675Z,16.13
2023-04-18T15:16:09.242Z,16.25
2023-04-18T15:18:35.766Z,16.12
2023-04-18T15:21:02.373Z,15.75
2023-04-18T15:23:29.002Z,15.81
2023-04-18T15:25:56.319Z,15.68
2023-04-18T15:28:23.094Z,15.54
2023-04-18T15:30:49.653Z,15.24
2023-04-18T15:33:22.115Z,15.09
2023-04-18T15:35:48.734Z,14.96
2023-04-18T15:38:18.433Z,15.07
2023-04-18T15:40:44.980Z,15.00
2023-04-18T15:43:12.811Z,14.86
2023-04-18T15:45:39.327Z,14.71
2023-04-18T15:48:06.548Z,14.57
2023-04-18T15:50:36.469Z,14.86
2023-04-18T15:53:05.892Z,15.80
2023-04-18T15:55:32.360Z,15.86
2023-04-18T15:57:58.868Z,16.17
2023-04-18T16:00:25.420Z,16.08
2023-04-18T16:02:52.052Z,16.31
2023-04-18T16:05:18.862Z,16.46
2023-04-18T16:07:45.704Z,16.38
2023-04-18T16:10:12.795Z,16.80
2023-04-18T16:12:39.874Z,16.76
2023-04-18T16:15:08.917Z,16.55
2023-04-18T16:17:37.008Z,16.31
2023-04-18T16:20:06.020Z,16.30
2023-04-18T16:22:32.569Z,16.16
2023-04-18T16:24:59.058Z,15.96
2023-04-18T16:27:25.631Z,16.04
2023-04-18T16:30:24.067Z,15.80
2023-04-18T16:32:50.953Z,15.58
2023-04-18T16:35:17.520Z,15.71
2023-04-18T16:37:44.036Z,15.48
2023-04-18T16:40:10.842Z,15.39
2023-04-18T16:42:37.432Z,15.47
2023-04-18T16:45:04.581Z,15.31
2023-04-18T16:47:31.070Z,15.25
2023-04-18T16:49:57.636Z,15.22
2023-04-18T16:52:24.451Z,15.30
2023-04-18T16:54:52.567Z,15.34
2023-04-18T16:57:19.430Z,15.47
2023-04-18T16:59:45.928Z,15.48
2023-04-18T17:02:12.652Z,15.07
2023-04-18T17:04:39.790Z,15.01
2023-04-18T17:07:06.361Z,14.81
2023-04-18T17:09:32.874Z,14.72
2023-04-18T17:11:59.407Z,14.61
2023-04-18T17:14:25.971Z,14.46
2023-04-18T17:16:53.669Z,14.35
2023-04-18T17:19:21.242Z,14.32
2023-04-18T17:21:49.022Z,14.34
2023-04-18T17:24:18.522Z,14.38
2023-04-18T17:26:45.224Z,14.45
2023-04-18T17:29:11.771Z,14.39
2023-04-18T17:31:38.368Z,14.33
2023-04-18T17:34:04.977Z,14.36
2023-04-18T17:36:31.757Z,14.39
2023-04-18T17:39:06.343Z,14.66
2023-04-18T17:41:38.027Z,14.42
2023-04-18T17:44:07.348Z,14.12
2023-04-18T17:46:34.136Z,14.13
2023-04-18T17:49:00.797Z,13.90
2023-04-18T17:51:27.363Z,13.89
2023-04-18T17:53:54.895Z,13.74
2023-04-18T17:56:22.105Z,13.37
2023-04-18T17:58:49.332Z,13.01
2023-04-18T18:01:20.971Z,13.03
2023-04-18T18:03:48.703Z,12.92
2023-04-18T18:06:15.930Z,13.09
2023-04-18T18:08:43.501Z,13.01
2023-04-18T18:11:10.758Z,12.97
2023-04-18T18:13:38.985Z,12.75
2023-04-18T18:16:07.043Z,12.96
2023-04-18T18:18:33.594Z,12.85
2023-04-18T18:21:00.142Z,12.93
2023-04-18T18:23:26.707Z,12.97
2023-04-18T18:25:53.308Z,12.88
2023-04-18T18:28:19.817Z,12.93
2023-04-18T18:30:46.366Z,12.99
2023-04-18T18:33:12.895Z,12.96
2023-04-18T18:35:39.514Z,12.75
2023-04-18T18:38:06.338Z,12.72
2023-04-18T18:40:33.045Z,12.75
2023-04-18T18:42:59.638Z,12.66
2023-04-18T18:45:26.260Z,12.74
2023-04-18T18:47:52.797Z,12.77
2023-04-18T18:50:19.546Z,12.72
2023-04-18T18:52:46.259Z,12.63
2023-04-18T18:55:12.940Z,12.42
2023-04-18T18:57:39.551Z,12.59
2023-04-18T19:00:11.472Z,12.56
2023-04-18T19:02:39.488Z,12.63
2023-04-18T19:05:07.355Z,12.59
2023-04-18T19:07:33.878Z,12.65
2023-04-18T19:10:01.692Z,12.59
2023-04-18T19:12:28.990Z,12.72
2023-04-18T19:14:55.599Z,12.77
2023-04-18T19:17:24.488Z,12.91
2023-04-18T19:19:52.932Z,12.75
2023-04-18T19:22:19.479Z,12.70
2023-04-18T19:24:45.976Z,12.74
2023-04-18T19:27:12.504Z,12.79
2023-04-18T19:29:39.547Z,12.73
2023-04-18T19:32:06.478Z,12.65
2023-04-18T19:34:33.107Z,12.64
2023-04-18T19:37:01.102Z,12.52
2023-04-18T19:39:27.973Z,12.55
2023-04-18T19:41:54.546Z,12.58
2023-04-18T19:44:21.235Z,12.85
2023-04-18T19:46:47.690Z,12.76
2023-04-18T19:49:14.491Z,12.52
2023-04-18T19:51:41.199Z,12.62
2023-04-18T19:54:07.790Z,12.87
2023-04-18T19:56:34.261Z,12.72
2023-04-18T19:59:01.620Z,12.39
2023-04-18T20:01:29.411Z,12.40
2023-04-18T20:03:58.509Z,12.40
2023-04-18T20:06:28.764Z,12.34
2023-04-18T20:08:55.356Z,12.37
2023-04-18T20:11:22.203Z,12.43
2023-04-18T20:13:49.283Z,12.37
2023-04-18T20:16:16.762Z,12.32
2023-04-18T20:18:45.813Z,12.55
2023-04-18T20:21:12.317Z,12.33
2023-04-18T20:23:40.416Z,12.19
2023-04-18T20:26:07.279Z,12.15
2023-04-18T20:28:33.826Z,12.22
2023-04-18T20:31:01.365Z,12.11
2023-04-18T20:33:27.948Z,12.02
2023-04-18T20:35:54.718Z,12.06
2023-04-18T20:38:25.789Z,12.03
2023-04-18T20:40:53.875Z,11.94
2023-04-18T20:43:20.545Z,11.83
2023-04-18T20:45:51.460Z,11.53
2023-04-18T20:48:18.447Z,11.83
2023-04-18T20:50:50.733Z,11.68
2023-04-18T20:53:22.272Z,11.74
2023-04-18T20:55:48.907Z,12.00
2023-04-18T20:58:15.781Z,11.68
2023-04-18T21:00:43.620Z,11.54
2023-04-18T21:03:12.746Z,11.72
2023-04-18T21:05:39.500Z,11.91
2023-04-18T21:08:06.130Z,11.89
2023-04-18T21:10:32.882Z,11.85
2023-04-18T21:12:59.459Z,11.78
2023-04-18T21:15:25.959Z,11.78
2023-04-18T21:17:52.850Z,11.77
2023-04-18T21:20:19.912Z,11.78
2023-04-18T21:22:46.424Z,11.80
2023-04-18T21:25:12.989Z,11.80
2023-04-18T21:27:39.530Z,11.75
2023-04-18T21:30:06.931Z,11.89
2023-04-18T21:32:33.466Z,11.90
2023-04-18T21:35:01.024Z,11.80
2023-04-18T21:37:27.566Z,11.85
2023-04-18T21:39:54.035Z,11.84
2023-04-18T21:42:20.573Z,11.77
2023-04-18T21:44:47.060Z,11.70
2023-04-18T21:47:13.552Z,11.79
2023-04-18T21:49:42.572Z,11.75
2023-04-18T21:52:09.093Z,11.55
2023-04-18T21:54:35.619Z,11.61
2023-04-18T21:57:02.676Z,11.80
2023-04-18T21:59:29.693Z,11.92
2023-04-18T22:01:56.318Z,11.77
2023-04-18T22:04:26.005Z,11.60
2023-04-18T22:06:55.637Z,11.46
2023-04-18T22:09:22.838Z,11.58
2023-04-18T22:11:51.494Z,11.49
2023-04-18T22:14:19.947Z,11.83
2023-04-18T22:16:46.449Z,11.52
2023-04-18T22:19:14.105Z,11.29
2023-04-18T22:21:40.610Z,11.36
2023-04-18T22:24:08.558Z,11.49
2023-04-18T22:26:35.087Z,11.52
2023-04-18T22:29:01.599Z,11.58
2023-04-18T22:31:28.254Z,11.68
2023-04-18T22:33:54.732Z,11.73
2023-04-18T22:36:21.256Z,11.77
2023-04-18T22:38:47.699Z,11.76
2023-04-18T22:41:15.401Z,11.57
2023-04-18T22:43:41.925Z,11.56
2023-04-18T22:46:08.499Z,11.40
2023-04-18T22:48:35.129Z,11.50
2023-04-18T22:51:01.806Z,11.36
2023-04-18T22:53:28.543Z,11.49
2023-04-18T22:55:55.314Z,11.44
2023-04-18T22:58:21.786Z,11.69
2023-04-18T23:00:48.289Z,11.73
2023-04-18T23:03:14.920Z,11.74
2023-04-18T23:05:41.871Z,11.77
2023-04-18T23:08:08.443Z,11.80
2023-04-18T23:10:35.087Z,11.66
2023-04-18T23:13:01.544Z,11.47
2023-04-18T23:15:28.060Z,11.69
2023-04-18T23:17:54.683Z,11.55
2023-04-18T23:20:21.897Z,11.31
2023-04-18T23:22:51.283Z,11.26
2023-04-18T23:25:19.255Z,11.31
2023-04-18T23:27:45.797Z,11.34
2023-04-18T23:30:12.872Z,11.27
2023-04-18T23:32:39.612Z,11.40
2023-04-18T23:35:06.823Z,11.32
2023-04-18T23:37:33.321Z,11.34
2023-04-18T23:40:00.528Z,11.36
2023-04-18T23:42:27.352Z,11.36
2023-04-18T23:44:54.414Z,11.24
2023-04-18T23:47:21.402Z,11.53
2023-04-18T23:49:47.995Z,11.33
2023-04-18T23:52:14.480Z,11.57
2023-04-18T23:54:41.123Z,11.63
2023-04-18T23:57:07.632Z,11.88
2023-04-18T23:59:34.415Z,11.67
